Time;durP1;ratioP1;P1;durP2;ratioP2;P2;SDS_P1;SDS_P2;PMS_P1;PMS_P2;Temp;Humidity;BMP_temperature;BMP_pressure;BME280_temperature;BME280_humidity;BME280_pressure;Samples;Min_cycle;Max_cycle;Signal;HPM_P1;HPM_P2
2022/12/21 00:01:21;;;;;;;13.63;3.63;;;;;;;4.78;100.00;98928.78;4947743;28;20058;-83
2022/12/21 00:03:54;;;;;;;17.92;3.92;;;;;;;4.98;100.00;98947.84;4967987;28;20050;-83
2022/12/21 00:06:22;;;;;;;19.45;3.47;;;;;;;5.21;100.00;98978.81;4952913;29;20064;-83
2022/12/21 00:08:51;;;;;;;16.45;3.85;;;;;;;5.11;100.00;98967.97;4952274;29;20104;-83
2022/12/21 00:11:21;;;;;;;20.75;4.30;;;;;;;4.95;100.00;98954.81;4947479;29;20441;-83
2022/12/21 00:13:49;;;;;;;11.80;3.10;;;;;;;4.60;100.00;98882.91;4951150;28;20394;-83
2022/12/21 00:16:18;;;;;;;14.05;3.10;;;;;;;5.20;100.00;98977.09;4948371;29;20489;-83
2022/12/21 00:18:45;;;;;;;16.15;3.30;;;;;;;4.95;100.00;98926.28;4951654;29;20051;-83
2022/12/21 00:21:16;;;;;;;22.42;4.38;;;;;;;4.73;100.00;98903.06;4951931;28;20054;-83
2022/12/21 00:23:45;;;;;;;18.05;5.55;;;;;;;5.05;100.00;98941.47;4952658;28;20214;-83
2022/12/21 00:26:13;;;;;;;16.73;3.80;;;;;;;5.02;100.00;98945.03;4953238;28;20118;-83
2022/12/21 00:28:40;;;;;;;13.23;2.72;;;;;;;5.10;100.00;98955.94;4939740;29;20051;-83
2022/12/21 00:31:13;;;;;;;16.38;3.92;;;;;;;5.25;100.00;98989.91;4950390;29;20450;-83
2022/12/21 00:33:41;;;;;;;17.88;3.55;;;;;;;5.32;100.00;99002.53;4967941;28;20493;-83
2022/12/21 00:36:10;;;;;;;11.95;3.47;;;;;;;5.21;100.00;98977.97;4953463;28;20545;-83
2022/12/21 00:38:37;;;;;;;15.27;3.60;;;;;;;4.67;100.00;98892.94;4951878;29;20128;-83
2022/12/21 00:41:07;;;;;;;14.85;2.97;;;;;;;4.97;100.00;98897.69;4951468;29;20120;-83
2022/12/21 00:43:36;;;;;;;14.07;3.10;;;;;;;5.08;100.00;98938.72;4951077;29;20804;-83
2022/12/21 00:46:04;;;;;;;14.65;3.38;;;;;;;5.02;100.00;98913.91;4947832;29;20563;-84
2022/12/21 00:48:32;;;;;;;12.52;3.22;;;;;;;5.29;100.00;98971.53;4951558;29;20449;-83
2022/12/21 00:51:07;;;;;;;9.10;2.35;;;;;;;5.43;100.00;98981.28;4949958;29;20142;-83
2022/12/21 00:53:34;;;;;;;13.80;2.78;;;;;;;5.18;100.00;98919.25;4952060;29;20063;-83
2022/12/21 00:56:03;;;;;;;16.48;3.35;;;;;;;5.10;100.00;98929.16;4952135;28;20074;-83
2022/12/21 00:58:31;;;;;;;13.23;3.42;;;;;;;5.25;100.00;98980.34;4971199;28;20055;-83
2022/12/21 01:01:00;;;;;;;17.85;4.45;;;;;;;5.27;100.00;98975.09;4951808;29;20059;-83
2022/12/21 01:03:27;;;;;;;17.58;2.92;;;;;;;5.13;100.00;98952.34;4955075;29;20714;-83
2022/12/21 01:05:54;;;;;;;13.98;3.05;;;;;;;5.66;100.00;99007.97;4955914;28;20474;-83
2022/12/21 01:08:25;;;;;;;10.02;2.58;;;;;;;5.40;100.00;98960.69;4955000;29;20059;-83
2022/12/21 01:11:01;;;;;;;13.32;2.95;;;;;;;4.73;100.00;98868.50;4954818;28;20051;-83
2022/12/21 01:13:29;;;;;;;10.48;2.70;;;;;;;5.00;100.00;98891.56;4954904;29;20063;-83
2022/12/21 01:15:56;;;;;;;13.63;3.03;;;;;;;5.24;100.00;98938.91;4954689;29;20442;-83
2022/12/21 01:18:24;;;;;;;11.93;3.10;;;;;;;5.19;100.00;98913.16;4954599;29;20051;-83
2022/12/21 01:20:56;;;;;;;17.90;3.85;;;;;;;5.37;100.00;98960.81;4953497;29;20051;-83
2022/12/21 01:23:24;;;;;;;10.90;2.80;;;;;;;4.90;100.00;98904.06;4956611;28;20047;-83
2022/12/21 01:25:51;;;;;;;10.18;2.65;;;;;;;5.08;100.00;98905.88;4955307;28;20055;-82
2022/12/21 01:28:18;;;;;;;13.52;2.72;;;;;;;5.22;100.00;98953.69;4953603;29;20055;-83
2022/12/21 01:30:45;;;;;;;24.55;3.92;;;;;;;4.85;100.00;98930.22;4954022;28;20051;-83
2022/12/21 01:33:14;;;;;;;13.90;3.15;;;;;;;4.86;100.00;98921.50;4954728;29;20413;-83
2022/12/21 01:35:42;;;;;;;20.70;4.85;;;;;;;4.48;100.00;98894.63;4955011;29;20051;-83
2022/12/21 01:38:10;;;;;;;10.05;2.53;;;;;;;4.52;100.00;98872.88;4955885;28;20063;-83
2022/12/21 01:40:37;;;;;;;15.00;2.60;;;;;;;4.80;100.00;98933.88;4954898;28;20043;-83
2022/12/21 01:43:36;;;;;;;17.70;3.30;;;;;;;4.34;100.00;98880.50;4954899;29;20405;-83
2022/12/21 01:46:05;;;;;;;18.42;3.10;;;;;;;4.56;100.00;98901.16;4954154;29;20047;-83
2022/12/21 01:48:38;;;;;;;18.65;3.50;;;;;;;4.83;100.00;98947.56;4955885;28;20055;-84
2022/12/21 01:51:06;;;;;;;17.52;3.45;;;;;;;4.62;100.00;98913.03;4953505;29;20102;-83
2022/12/21 01:53:38;;;;;;;15.70;3.03;;;;;;;4.75;100.00;98939.28;4954505;29;20161;-83
2022/12/21 01:56:08;;;;;;;12.77;2.73;;;;;;;4.76;100.00;98928.00;4954352;29;20604;-84
2022/12/21 01:58:36;;;;;;;15.63;3.30;;;;;;;4.35;100.00;98892.53;4954131;29;20300;-84
2022/12/21 02:01:05;;;;;;;19.58;3.80;;;;;;;4.60;100.00;98922.63;4951820;29;20047;-83
2022/12/21 02:03:35;;;;;;;14.45;4.15;;;;;;;4.21;100.00;98834.44;4954383;29;20728;-83
2022/12/21 02:06:08;;;;;;;21.33;3.92;;;;;;;4.48;100.00;98882.53;4950794;29;20055;-84
2022/12/21 02:08:35;;;;;;;13.65;2.97;;;;;;;4.37;100.00;98871.75;4955529;28;20051;-83
2022/12/21 02:11:03;;;;;;;13.77;4.50;;;;;;;4.32;100.00;98863.31;4952995;29;20054;-83
2022/12/21 02:13:30;;;;;;;10.25;3.45;;;;;;;4.95;100.00;98941.03;4970215;28;20047;-84
2022/12/21 02:16:07;;;;;;;18.70;4.03;;;;;;;4.99;100.00;98947.75;4952928;29;20094;-83
2022/12/21 02:19:01;;;;;;;22.60;4.40;;;;;;;4.79;100.00;98955.56;4942053;29;20055;-84
2022/12/21 02:21:27;;;;;;;15.95;3.72;;;;;;;4.87;100.00;98954.31;4953027;29;20055;-84
2022/12/21 02:24:16;;;;;;;26.58;5.22;;;;;;;4.88;100.00;98953.41;4955486;28;20493;-83
2022/12/21 02:27:02;;;;;;;12.73;3.33;;;;;;;5.30;100.00;98960.22;4955077;28;20051;-83
2022/12/21 02:29:29;;;;;;;22.15;3.30;;;;;;;5.47;100.00;98967.28;4953673;29;20055;-84
2022/12/21 02:32:19;;;;;;;15.85;3.40;;;;;;;5.45;100.00;98927.56;4952232;29;20500;-84
2022/12/21 02:35:04;;;;;;;17.08;3.10;;;;;;;5.61;100.00;98958.88;4969894;28;20119;-83
2022/12/21 02:37:37;;;;;;;15.88;3.30;;;;;;;5.17;100.00;98921.91;4955041;28;20077;-84
2022/12/21 02:40:07;;;;;;;;;;;;;;;5.77;100.00;98952.94;4954237;29;20055;-83
2022/12/21 02:45:49;;;;;;;16.58;3.38;;;;;;;5.50;100.00;98929.94;4949186;29;20465;-83
2022/12/21 02:48:38;;;;;;;16.27;3.42;;;;;;;5.73;100.00;98947.06;4948694;29;20051;-83
2022/12/21 02:51:12;;;;;;;22.02;4.65;;;;;;;4.97;100.00;98847.59;4952472;29;20055;-83
2022/12/21 02:53:40;;;;;;;22.38;4.25;;;;;;;5.08;100.00;98866.94;4954797;28;20098;-84
2022/12/21 02:56:17;;;;;;;22.40;4.28;;;;;;;5.35;100.00;98895.16;4953573;29;20445;-84
2022/12/21 02:58:44;;;;;;;12.35;3.35;;;;;;;5.36;100.00;98873.47;4953401;29;20051;-84
2022/12/21 03:01:29;;;;;;;18.95;4.43;;;;;;;5.73;100.00;98941.88;4951841;29;20497;-84
2022/12/21 03:04:11;;;;;;;19.40;4.47;;;;;;;5.79;100.00;98919.94;4954600;28;20066;-84
2022/12/21 03:07:16;;;;;;;21.63;4.00;;;;;;;5.72;100.00;98877.88;4953242;29;20133;-84
2022/12/21 03:09:58;;;;;;;12.50;2.90;;;;;;;5.35;100.00;98827.69;4941678;29;20051;-84
2022/12/21 03:12:59;;;;;;;26.08;4.20;;;;;;;5.77;100.00;98917.47;4952254;29;20059;-83
2022/12/21 03:15:58;;;;;;;20.23;4.20;;;;;;;5.49;100.00;98872.00;4953008;29;20047;-84
2022/12/21 03:18:34;;;;;;;8.90;2.75;;;;;;;5.54;100.00;98850.16;4941280;28;20558;-84
2022/12/21 03:21:07;;;;;;;12.77;3.08;;;;;;;5.93;100.00;98912.34;4951963;29;20047;-83
2022/12/21 03:23:45;;;;;;;16.70;3.65;;;;;;;5.73;100.00;98865.72;4954564;29;20390;-83
2022/12/21 03:26:34;;;;;;;15.73;3.92;;;;;;;5.35;100.00;98915.91;4964654;28;20051;-83
2022/12/21 03:29:04;;;;;;;8.20;2.13;;;;;;;4.88;100.00;98838.47;4953105;29;20043;-84
2022/12/21 03:31:36;;;;;;;15.82;2.85;;;;;;;5.28;100.00;98891.16;4947917;29;20058;-84
2022/12/21 03:34:09;;;;;;;17.40;2.90;;;;;;;5.85;100.00;98899.72;4952638;29;20110;-84
2022/12/21 03:36:59;;;;;;;14.40;2.63;;;;;;;5.56;100.00;98861.31;4953988;28;20429;-84
2022/12/21 03:39:29;;;;;;;17.35;3.28;;;;;;;5.27;100.00;98822.81;4957256;28;20058;-84
2022/12/21 03:42:01;;;;;;;16.25;3.08;;;;;;;5.61;100.00;98841.16;4951723;29;20050;-84
2022/12/21 03:44:36;;;;;;;14.88;4.00;;;;;;;5.15;100.00;98802.63;4953286;28;20059;-83
2022/12/21 03:47:08;;;;;;;18.15;3.60;;;;;;;5.90;100.00;98870.97;4948493;29;20055;-84
2022/12/21 03:49:45;;;;;;;16.33;3.78;;;;;;;5.20;100.00;98773.91;4952582;29;20462;-83
2022/12/21 03:52:14;;;;;;;14.00;3.45;;;;;;;5.38;100.00;98790.34;4951113;29;20051;-84
2022/12/21 03:55:12;;;;;;;17.73;5.35;;;;;;;5.88;100.00;98844.22;4952169;29;20094;-83
2022/12/21 03:57:40;;;;;;;18.73;3.42;;;;;;;5.42;100.00;98774.56;4938753;29;20094;-83
2022/12/21 04:00:10;;;;;;;13.25;2.50;;;;;;;5.63;100.00;98769.25;4947320;29;20065;-83
2022/12/21 04:03:00;;;;;;;18.25;3.33;;;;;;;5.57;100.00;98791.16;4949199;29;20054;-83
2022/12/21 04:05:33;;;;;;;16.13;3.15;;;;;;;5.03;100.00;98757.38;4951809;29;20102;-83
2022/12/21 04:08:01;;;;;;;16.20;3.25;;;;;;;5.43;100.00;98759.81;4952340;29;20057;-83
2022/12/21 04:10:28;;;;;;;16.27;3.22;;;;;;;5.77;100.00;98807.53;4950516;29;20066;-83
2022/12/21 04:12:55;;;;;;;20.30;3.22;;;;;;;5.46;100.00;98762.28;4952251;29;20042;-83
2022/12/21 04:16:03;;;;;;;16.05;3.10;;;;;;;5.74;100.00;98813.72;4952987;28;20058;-83
2022/12/21 04:18:13;;;;;;;15.85;3.55;;;;;;;5.03;100.00;98715.00;4953133;28;20441;-83
2022/12/21 04:20:40;;;;;;;14.55;3.47;;;;;;;5.78;100.00;98809.22;4950741;29;20105;-83
2022/12/21 04:28:38;;;;;;;15.27;3.45;;;;;;;5.56;100.00;98796.41;4953146;28;20055;-83
2022/12/21 04:31:16;;;;;;;13.20;2.83;;;;;;;5.21;100.00;98703.78;4949248;28;20058;-83
2022/12/21 04:33:43;;;;;;;13.68;3.75;;;;;;;5.42;100.00;98706.22;4955650;29;20044;-83
2022/12/21 04:38:55;;;;;;;14.10;2.50;;;;;;;5.49;100.00;98725.81;4945169;29;20055;-83
2022/12/21 04:41:21;;;;;;;12.88;2.78;;;;;;;5.54;100.00;98722.97;4954191;29;20054;-83
2022/12/21 04:43:48;;;;;;;11.90;2.75;;;;;;;5.24;100.00;98708.81;4956903;28;20048;-83
2022/12/21 04:46:16;;;;;;;15.85;3.05;;;;;;;5.13;100.00;98716.25;4948593;29;20752;-83
2022/12/21 04:48:44;;;;;;;11.35;3.17;;;;;;;5.77;100.00;98771.16;4955835;29;20078;-83
2022/12/21 04:51:17;;;;;;;18.10;3.78;;;;;;;5.27;100.00;98711.25;4956092;28;20051;-83
2022/12/21 04:53:44;;;;;;;13.23;4.65;;;;;;;5.39;100.00;98709.81;4955598;29;20051;-83
2022/12/21 04:56:10;;;;;;;15.10;3.58;;;;;;;5.60;100.00;98744.28;4950368;29;20414;-83
2022/12/21 04:58:38;;;;;;;13.50;2.65;;;;;;;5.96;100.00;98761.56;4956478;28;20066;-83
2022/12/21 05:01:09;;;;;;;16.23;3.67;;;;;;;5.82;100.00;98736.25;4945253;28;20047;-83
2022/12/21 05:03:37;;;;;;;14.73;2.97;;;;;;;5.56;100.00;98689.97;4956576;28;20512;-83
2022/12/21 05:06:04;;;;;;;9.50;3.05;;;;;;;5.32;100.00;98664.31;4955436;29;20867;-83
2022/12/21 05:08:30;;;;;;;16.20;3.33;;;;;;;5.30;100.00;98663.56;4953997;29;20449;-83
2022/12/21 05:11:14;;;;;;;15.55;2.55;;;;;;;6.01;100.00;98744.00;4950378;29;20051;-83
2022/12/21 05:13:42;;;;;;;14.70;3.03;;;;;;;5.60;100.00;98702.75;4955726;29;20492;-83
2022/12/21 05:16:12;;;;;;;12.70;2.55;;;;;;;5.74;100.00;98678.69;4956088;28;20470;-83
2022/12/21 05:18:39;;;;;;;15.10;3.03;;;;;;;5.75;100.00;98732.28;4955823;28;20061;-84
2022/12/21 05:21:06;;;;;;;18.70;3.83;;;;;;;5.54;100.00;98720.38;4955303;28;20051;-83
2022/12/21 05:23:33;;;;;;;13.70;4.47;;;;;;;5.32;100.00;98679.91;4955364;29;20052;-83
2022/12/21 05:26:01;;;;;;;15.50;3.60;;;;;;;5.30;100.00;98669.59;4956787;28;20130;-83
2022/12/21 05:28:39;;;;;;;12.65;2.65;;;;;;;5.50;100.00;98655.63;4956089;28;20059;-83
2022/12/21 05:31:06;;;;;;;17.55;2.72;;;;;;;5.95;100.00;98730.44;4953158;29;20055;-83
2022/12/21 05:33:33;;;;;;;17.60;3.70;;;;;;;5.18;100.00;98594.94;4954734;29;20047;-83
2022/12/21 05:36:05;;;;;;;10.48;2.22;;;;;;;5.57;100.00;98642.34;4956324;28;20477;-83
2022/12/21 05:38:32;;;;;;;11.60;2.85;;;;;;;5.81;100.00;98695.63;4944775;29;20084;-84
2022/12/21 05:40:59;;;;;;;20.50;3.30;;;;;;;5.59;100.00;98693.25;4952388;28;20094;-83
2022/12/21 05:43:26;;;;;;;16.38;2.53;;;;;;;5.58;100.00;98676.03;4950630;28;20103;-83
2022/12/21 05:45:53;;;;;;;15.30;3.50;;;;;;;5.67;100.00;98662.56;4960858;28;20047;-83
2022/12/21 05:48:19;;;;;;;15.95;4.38;;;;;;;5.47;100.00;98647.16;4961211;28;20065;-83
2022/12/21 05:50:46;;;;;;;9.93;2.85;;;;;;;5.51;100.00;98626.16;4945077;28;20098;-83
2022/12/21 05:53:13;;;;;;;15.77;4.28;;;;;;;5.54;100.00;98653.72;4949108;28;20043;-83
2022/12/21 05:55:44;;;;;;;18.67;3.63;;;;;;;5.45;100.00;98630.81;4953161;28;20747;-83
2022/12/21 05:58:15;;;;;;;12.48;2.60;;;;;;;5.40;100.00;98615.50;4949915;28;20576;-83
2022/12/21 06:00:42;;;;;;;13.85;3.08;;;;;;;5.68;100.00;98656.47;4947913;28;20062;-83
2022/12/21 06:03:09;;;;;;;10.48;2.50;;;;;;;5.65;100.00;98659.22;4961302;28;20082;-83
2022/12/21 06:05:37;;;;;;;9.50;2.60;;;;;;;6.05;100.00;98719.53;4949803;29;20468;-84
2022/12/21 06:08:04;;;;;;;13.10;2.25;;;;;;;5.63;100.00;98635.09;4940001;28;20095;-83
2022/12/21 06:10:30;;;;;;;15.93;3.10;;;;;;;5.60;100.00;98645.63;4946110;28;20074;-83
2022/12/21 06:12:57;;;;;;;11.80;2.55;;;;;;;5.49;100.00;98619.38;4953507;28;20061;-83
2022/12/21 06:15:27;;;;;;;23.42;5.35;;;;;;;5.34;100.00;98615.78;4947100;28;20058;-84
2022/12/21 06:17:54;;;;;;;11.73;2.80;;;;;;;5.44;100.00;98618.78;4950334;28;20547;-83
2022/12/21 06:20:32;;;;;;;14.02;2.70;;;;;;;5.72;100.00;98628.59;4945215;28;20051;-83
2022/12/21 06:23:00;;;;;;;13.98;3.65;;;;;;;5.80;100.00;98635.97;4965628;28;20051;-83
2022/12/21 06:25:27;;;;;;;13.20;3.90;;;;;;;5.74;100.00;98618.97;4947168;28;20409;-83
2022/12/21 06:27:57;;;;;;;16.48;3.10;;;;;;;5.94;100.00;98641.28;4963359;28;20047;-84
2022/12/21 06:30:26;;;;;;;11.95;3.28;;;;;;;5.60;100.00;98582.50;4950404;29;20533;-83
2022/12/21 06:32:53;;;;;;;20.05;3.33;;;;;;;5.93;100.00;98637.00;4950070;29;20047;-83
2022/12/21 06:35:19;;;;;;;16.60;4.10;;;;;;;5.64;100.00;98578.81;4950685;28;20051;-83
2022/12/21 06:37:46;;;;;;;16.52;2.97;;;;;;;5.85;100.00;98598.44;4950452;29;20055;-82
2022/12/21 06:40:13;;;;;;;14.70;3.13;;;;;;;5.94;100.00;98585.91;4948701;28;20101;-83
2022/12/21 06:42:39;;;;;;;13.68;3.05;;;;;;;6.20;100.00;98654.72;4942806;28;20110;-82
2022/12/21 06:45:07;;;;;;;11.98;2.72;;;;;;;6.17;100.00;98627.13;4964654;28;20063;-84
2022/12/21 06:47:34;;;;;;;12.77;2.58;;;;;;;6.14;100.00;98600.47;4956653;28;20047;-82
2022/12/21 06:50:00;;;;;;;16.77;3.28;;;;;;;5.60;100.00;98567.75;4947900;28;20058;-82
2022/12/21 06:52:27;;;;;;;16.90;3.97;;;;;;;5.61;100.00;98568.56;4945877;28;20073;-83
2022/12/21 06:54:55;;;;;;;12.80;2.83;;;;;;;5.75;100.00;98573.06;4943019;28;20812;-82
2022/12/21 06:57:21;;;;;;;16.48;3.20;;;;;;;5.78;100.00;98589.31;4948465;29;20799;-82
2022/12/21 06:59:48;;;;;;;14.05;2.50;;;;;;;5.71;100.00;98569.78;4948329;28;20071;-83
2022/12/21 07:02:15;;;;;;;15.07;2.25;;;;;;;5.48;100.00;98522.47;4952386;28;20453;-83
2022/12/21 07:04:42;;;;;;;14.45;2.70;;;;;;;5.31;100.00;98538.09;4947714;28;20074;-84
2022/12/21 07:07:09;;;;;;;16.77;2.70;;;;;;;5.57;100.00;98552.31;4943169;28;20055;-83
2022/12/21 07:09:35;;;;;;;11.68;2.70;;;;;;;5.78;100.00;98607.50;4948654;28;20043;-83
2022/12/21 07:12:02;;;;;;;24.15;4.45;;;;;;;5.60;100.00;98583.31;4945665;29;20413;-84
2022/12/21 07:14:29;;;;;;;17.10;3.92;;;;;;;5.46;100.00;98557.22;4959751;28;20039;-84
2022/12/21 07:16:56;;;;;;;16.67;4.22;;;;;;;5.40;100.00;98516.88;4945620;28;20062;-84
2022/12/21 07:19:22;;;;;;;17.92;3.40;;;;;;;5.33;100.00;98539.69;4946921;28;20071;-84
2022/12/21 07:21:49;;;;;;;19.23;3.38;;;;;;;5.54;100.00;98533.47;4948391;28;20051;-84
2022/12/21 07:24:16;;;;;;;21.63;3.58;;;;;;;5.73;100.00;98541.13;4947278;28;20050;-84
2022/12/21 07:26:43;;;;;;;21.13;3.40;;;;;;;5.59;100.00;98539.25;4945184;29;20063;-85
2022/12/21 07:29:11;;;;;;;18.70;3.28;;;;;;;5.88;100.00;98551.56;4947197;28;20051;-84
2022/12/21 07:31:38;;;;;;;17.40;3.17;;;;;;;5.61;100.00;98504.53;4945746;29;20043;-84
2022/12/21 07:34:05;;;;;;;13.25;3.40;;;;;;;5.51;100.00;98513.72;4945866;28;20070;-84
2022/12/21 07:36:32;;;;;;;17.17;2.80;;;;;;;5.73;100.00;98518.59;4944655;29;20059;-84
2022/12/21 07:39:02;;;;;;;15.02;2.78;;;;;;;5.88;100.00;98516.97;4951771;28;20051;-84
2022/12/21 07:41:28;;;;;;;22.52;3.20;;;;;;;5.80;100.00;98504.38;4946483;28;20055;-84
2022/12/21 07:43:55;;;;;;;17.63;2.65;;;;;;;5.68;100.00;98500.69;4944845;28;20054;-84
2022/12/21 07:46:22;;;;;;;17.23;5.05;;;;;;;5.95;100.00;98505.31;4961898;28;20457;-84
2022/12/21 07:48:49;;;;;;;14.85;3.20;;;;;;;5.76;100.00;98492.47;4947837;28;20051;-84
2022/12/21 07:51:16;;;;;;;13.10;3.35;;;;;;;5.87;100.00;98505.72;4947619;28;20066;-84
2022/12/21 07:53:43;;;;;;;16.67;3.60;;;;;;;6.14;100.00;98523.34;4947898;28;20047;-84
2022/12/21 07:56:15;;;;;;;17.63;3.97;;;;;;;6.35;100.00;98564.69;4952155;28;20059;-85
2022/12/21 07:58:43;;;;;;;12.20;3.33;;;;;;;6.10;100.00;98513.22;4963345;28;20042;-84
2022/12/21 08:01:17;;;;;;;14.75;3.92;;;;;;;6.53;100.00;98565.41;4956569;29;20081;-84
2022/12/21 08:03:45;;;;;;;15.52;3.08;;;;;;;6.56;100.00;98560.88;4966815;28;20056;-84
2022/12/21 08:06:15;;;;;;;22.80;3.88;;;;;;;6.65;100.00;98586.38;4959492;29;20027;-85
2022/12/21 08:08:42;;;;;;;24.75;3.83;;;;;;;6.41;100.00;98527.94;4971488;28;20120;-83
2022/12/21 08:11:15;;;;;;;19.45;3.25;;;;;;;6.57;100.00;98535.72;4956415;29;20055;-85
2022/12/21 08:13:51;;;;;;;19.50;3.20;;;;;;;6.49;100.00;98525.75;4968688;29;20069;-84
2022/12/21 08:16:20;;;;;;;14.50;2.80;;;;;;;6.55;100.00;98568.78;4968865;29;20523;-84
2022/12/21 08:18:49;;;;;;;22.58;3.97;;;;;;;6.60;100.00;98559.78;4969790;28;20131;-85
2022/12/21 08:21:29;;;;;;;16.27;3.78;;;;;;;6.46;100.00;98562.31;4962003;28;20294;-85
2022/12/21 08:24:00;;;;;;;13.25;3.45;;;;;;;6.36;100.00;98522.19;4968307;29;20628;-84
2022/12/21 08:26:28;;;;;;;18.52;4.30;;;;;;;6.41;100.00;98538.34;4969583;28;20047;-84
2022/12/21 08:28:57;;;;;;;16.48;3.65;;;;;;;6.41;100.00;98540.94;4968345;28;20067;-85
2022/12/21 08:31:27;;;;;;;13.60;3.15;;;;;;;6.44;100.00;98574.56;4968773;28;20043;-84
2022/12/21 08:33:54;;;;;;;17.92;4.03;;;;;;;6.30;100.00;98561.50;4981333;28;20052;-84
2022/12/21 08:36:23;;;;;;;12.82;2.90;;;;;;;6.51;100.00;98559.47;4965482;29;20047;-84
2022/12/21 08:38:51;;;;;;;12.13;2.95;;;;;;;6.37;100.00;98588.81;4970238;28;20126;-82
2022/12/21 08:41:37;;;;;;;15.18;2.70;;;;;;;6.57;100.00;98614.59;4968198;29;20429;-84
2022/12/21 08:44:05;;;;;;;17.60;4.15;;;;;;;6.45;100.00;98594.47;4968849;29;20047;-83
2022/12/21 08:46:33;;;;;;;14.82;2.50;;;;;;;6.43;100.00;98581.53;4968111;29;20051;-84
2022/12/21 08:49:14;;;;;;;9.98;2.80;;;;;;;6.42;100.00;98573.81;4960507;29;20074;-84
2022/12/21 08:51:44;;;;;;;13.82;2.92;;;;;;;6.54;100.00;98585.31;4969436;29;20047;-84
2022/12/21 08:54:26;;;;;;;12.85;2.65;;;;;;;6.59;100.00;98589.34;4970168;29;20054;-85
2022/12/21 08:57:03;;;;;;;17.23;2.92;;;;;;;6.43;100.00;98533.91;4971448;28;20478;-84
2022/12/21 08:59:31;;;;;;;13.73;2.83;;;;;;;6.40;100.00;98523.69;4970533;28;20055;-85
2022/12/21 09:02:04;;;;;;;13.75;2.72;;;;;;;6.90;100.00;98590.19;4968932;29;20131;-84
2022/12/21 09:04:44;;;;;;;10.30;2.47;;;;;;;6.85;100.00;98587.00;4969151;29;20051;-83
2022/12/21 09:07:12;;;;;;;10.15;2.63;;;;;;;6.83;100.00;98607.94;4968658;29;20071;-84
2022/12/21 09:09:39;;;;;;;13.85;3.30;;;;;;;6.83;100.00;98575.88;4968643;29;20051;-84
2022/12/21 09:12:20;;;;;;;13.27;3.08;;;;;;;6.76;100.00;98564.13;4968484;29;20039;-84
2022/12/21 09:15:01;;;;;;;8.98;2.50;;;;;;;6.63;100.00;98557.03;4965707;29;20103;-85
2022/12/21 09:17:29;;;;;;;12.95;3.05;;;;;;;6.42;100.00;98516.63;4970837;28;20055;-84
2022/12/21 09:19:57;;;;;;;9.85;2.08;;;;;;;6.74;100.00;98537.38;4972669;29;20104;-84
2022/12/21 09:22:26;;;;;;;11.45;2.75;;;;;;;6.54;100.00;98538.50;4973224;29;20082;-85
2022/12/21 09:25:07;;;;;;;12.57;2.67;;;;;;;7.16;100.00;98590.47;4956541;28;20039;-85
2022/12/21 09:27:36;;;;;;;24.80;5.32;;;;;;;6.83;100.00;98544.66;4966745;29;20205;-85
2022/12/21 09:30:16;;;;;;;9.05;2.25;;;;;;;6.56;100.00;98550.50;4961789;29;20055;-84
2022/12/21 09:32:58;;;;;;;14.68;2.88;;;;;;;7.03;100.00;98577.34;4972710;29;20055;-85
2022/12/21 09:35:39;;;;;;;13.82;2.67;;;;;;;6.93;100.00;98521.56;4972680;29;20050;-85
2022/12/21 09:38:20;;;;;;;15.10;3.35;;;;;;;6.72;100.00;98524.47;4971490;29;20038;-85
2022/12/21 09:41:04;;;;;;;14.98;3.45;;;;;;;7.23;100.00;98576.19;4974057;28;20051;-85
2022/12/21 09:44:06;;;;;;;12.63;3.08;;;;;;;7.16;100.00;98580.91;4961638;29;20103;-85
2022/12/21 09:46:51;;;;;;;14.45;3.42;;;;;;;6.42;100.00;98472.44;4973564;28;20027;-85
2022/12/21 09:49:42;;;;;;;9.60;3.00;;;;;;;7.18;100.00;98565.19;4972824;29;20073;-85
2022/12/21 09:52:37;;;;;;;8.68;2.28;;;;;;;6.82;100.00;98537.78;4964371;29;20383;-84
2022/12/21 09:55:20;;;;;;;11.55;2.50;;;;;;;6.91;100.00;98539.03;4962960;29;20043;-85
2022/12/21 09:58:06;;;;;;;10.38;2.22;;;;;;;6.24;100.00;98453.53;4971161;29;20047;-83
2022/12/21 10:00:37;;;;;;;17.00;3.50;;;;;;;6.94;100.00;98546.63;4973256;29;20524;-84
2022/12/21 10:03:34;;;;;;;12.07;2.78;;;;;;;7.16;100.00;98559.25;4972454;29;20405;-85
2022/12/21 10:06:21;;;;;;;11.27;2.40;;;;;;;6.15;100.00;98400.31;4963517;29;20043;-84
2022/12/21 10:09:11;;;;;;;10.27;2.92;;;;;;;7.17;100.00;98566.97;4972987;29;20081;-85
2022/12/21 10:12:09;;;;;;;12.55;2.92;;;;;;;7.36;100.00;98561.50;4967460;29;20036;-84
2022/12/21 10:14:59;;;;;;;14.52;4.00;;;;;;;7.26;100.00;98546.53;4979562;28;20031;-85
2022/12/21 10:17:38;;;;;;;10.18;3.00;;;;;;;7.27;100.00;98538.63;4971742;29;20086;-84
2022/12/21 10:20:31;;;;;;;10.48;2.80;;;;;;;7.18;100.00;98544.38;4950552;29;20106;-84
2022/12/21 10:23:16;;;;;;;10.88;2.60;;;;;;;7.11;100.00;98530.88;4968356;29;20039;-84
2022/12/21 10:25:46;;;;;;;11.57;2.53;;;;;;;7.32;100.00;98522.75;4963581;29;20058;-84
2022/12/21 10:28:36;;;;;;;8.90;2.20;;;;;;;7.48;100.00;98543.50;4973281;28;20119;-85
2022/12/21 10:31:24;;;;;;;14.25;2.92;;;;;;;7.18;100.00;98519.19;4972110;29;20035;-85
2022/12/21 10:34:30;;;;;;;9.90;2.08;;;;;;;7.51;100.00;98546.75;4972439;28;20062;-85
2022/12/21 10:37:01;;;;;;;14.43;2.53;;;;;;;7.04;100.00;98477.53;4987634;28;20055;-85
2022/12/21 10:39:43;;;;;;;10.13;3.05;;;;;;;7.34;100.00;98513.06;4971300;29;20059;-85
2022/12/21 10:42:26;;;;;;;13.55;2.70;;;;;;;7.43;100.00;98501.28;4971196;28;20051;-84
2022/12/21 10:44:53;;;;;;;9.05;2.17;;;;;;;7.71;100.00;98501.25;4971226;29;20035;-84
2022/12/21 10:47:34;;;;;;;12.55;2.42;;;;;;;7.69;100.00;98474.47;4972122;29;20049;-84
2022/12/21 10:50:11;;;;;;;15.70;2.55;;;;;;;7.64;100.00;98473.91;4971118;29;20054;-84
2022/12/21 10:52:41;;;;;;;12.23;2.90;;;;;;;8.12;100.00;98542.16;4970776;29;20054;-85
2022/12/21 10:55:19;;;;;;;11.70;2.83;;;;;;;8.13;100.00;98532.59;4972600;29;20078;-84
2022/12/21 10:58:02;;;;;;;10.77;2.63;;;;;;;8.42;100.00;98522.94;4971256;29;20034;-84
2022/12/21 11:00:36;;;;;;;9.18;2.00;;;;;;;8.46;100.00;98487.88;4969210;29;20059;-85
2022/12/21 11:03:31;;;;;;;9.52;2.83;;;;;;;8.71;100.00;98517.59;4971742;29;20035;-85
2022/12/21 11:06:17;;;;;;;17.67;2.78;;;;;;;8.29;100.00;98472.50;4959494;29;20062;-84
2022/12/21 11:08:58;;;;;;;13.75;2.90;;;;;;;8.32;100.00;98507.03;4972076;28;20055;-84
2022/12/21 11:11:30;;;;;;;11.88;3.08;;;;;;;8.51;100.00;98519.72;4966413;29;20426;-86
2022/12/21 11:14:16;;;;;;;12.68;2.78;;;;;;;7.96;100.00;98465.88;4971584;29;20058;-84
2022/12/21 11:16:45;;;;;;;19.23;3.63;;;;;;;7.84;100.00;98477.06;4970002;29;20043;-85
2022/12/21 11:19:26;;;;;;;12.50;2.30;;;;;;;8.20;100.00;98517.38;4971363;28;20050;-85
2022/12/21 11:22:07;;;;;;;10.38;2.05;;;;;;;8.42;100.00;98504.69;4955557;29;20063;-85
2022/12/21 11:24:52;;;;;;;11.52;2.33;;;;;;;8.32;100.00;98487.91;4968820;29;20043;-85
2022/12/21 11:27:34;;;;;;;15.45;2.78;;;;;;;8.39;100.00;98493.56;4969777;29;20051;-86
2022/12/21 11:30:26;;;;;;;14.35;3.03;;;;;;;8.60;100.00;98514.84;4958241;29;20027;-85
2022/12/21 11:33:16;;;;;;;12.23;2.63;;;;;;;8.53;100.00;98488.34;4968311;29;20486;-84
2022/12/21 11:36:07;;;;;;;10.95;2.60;;;;;;;8.42;100.00;98462.94;4962327;29;20118;-84
2022/12/21 11:38:48;;;;;;;11.65;3.08;;;;;;;8.58;100.00;98469.78;4970971;29;20102;-84
2022/12/21 11:41:16;;;;;;;9.82;2.72;;;;;;;8.62;100.00;98539.06;4970580;28;20187;-84
2022/12/21 11:43:57;;;;;;;16.45;3.40;;;;;;;8.80;100.00;98501.38;4967219;29;20047;-85
2022/12/21 11:46:41;;;;;;;11.52;2.78;;;;;;;8.58;100.00;98482.81;4971757;29;20055;-84
2022/12/21 11:49:44;;;;;;;12.25;3.03;;;;;;;8.82;100.00;98529.94;4969662;29;20058;-84
2022/12/21 11:52:30;;;;;;;9.90;2.30;;;;;;;8.70;100.00;98527.19;4969996;28;20066;-84
2022/12/21 11:55:13;;;;;;;10.52;2.22;;;;;;;8.97;100.00;98509.84;4969591;28;20075;-84
2022/12/21 11:58:12;;;;;;;13.82;2.10;;;;;;;8.50;100.00;98423.34;4971498;28;20451;-84
2022/12/21 12:01:19;;;;;;;11.45;2.28;;;;;;;8.63;100.00;98436.41;4956756;29;20055;-84
2022/12/21 12:04:18;;;;;;;8.93;2.10;;;;;;;8.98;100.00;98503.66;4972138;28;20047;-85
2022/12/21 12:07:23;;;;;;;8.85;2.20;;;;;;;9.25;100.00;98496.59;4970865;28;20062;-84
2022/12/21 12:10:32;;;;;;;8.60;2.13;;;;;;;9.05;100.00;98500.56;4972001;29;20058;-84